Time;durP1;ratioP1;P1;durP2;ratioP2;P2;SDS_P1;SDS_P2;PMS_P1;PMS_P2;Temp;Humidity;BMP_temperature;BMP_pressure;BME280_temperature;BME280_humidity;BME280_pressure;Samples;Min_cycle;Max_cycle;Signal;HPM_P1;HPM_P2
2023/03/24 00:01:52;;;;;;;15.43;9.47;;;;;;;40.56;33.26;101100.41;4994699;28;20432;-82
2023/03/24 00:04:18;;;;;;;14.17;8.93;;;;;;;40.61;33.28;101119.28;4994788;28;20451;-80
2023/03/24 00:06:44;;;;;;;18.77;10.67;;;;;;;40.66;34.25;101119.13;4994980;28;20439;-80
2023/03/24 00:09:10;;;;;;;18.07;11.20;;;;;;;40.74;34.01;101115.59;4994226;28;20796;-80
2023/03/24 00:11:37;;;;;;;18.17;12.03;;;;;;;40.74;33.87;101121.03;4994966;28;20813;-80
2023/03/24 00:14:03;;;;;;;15.27;11.07;;;;;;;40.64;33.83;101101.50;5011239;28;20425;-80
2023/03/24 00:16:29;;;;;;;22.30;11.57;;;;;;;40.71;34.00;101097.22;4994739;28;20814;-82
2023/03/24 00:18:55;;;;;;;18.50;10.30;;;;;;;40.60;34.36;101087.78;4994286;28;21017;-82
2023/03/24 00:21:25;;;;;;;16.87;9.40;;;;;;;40.67;34.14;101090.00;4994465;28;20454;-82
2023/03/24 00:23:53;;;;;;;18.97;10.60;;;;;;;40.54;34.53;101078.97;4995055;28;20945;-82
2023/03/24 00:26:20;;;;;;;15.40;9.93;;;;;;;40.64;34.75;101077.88;4994803;28;20440;-82
2023/03/24 00:28:47;;;;;;;17.43;10.30;;;;;;;40.71;34.50;101074.66;4994308;28;20933;-82
2023/03/24 00:31:15;;;;;;;20.30;10.30;;;;;;;40.59;34.63;101053.53;5012434;28;20543;-82
2023/03/24 00:33:43;;;;;;;21.70;11.33;;;;;;;40.50;34.40;101052.72;5005270;28;20519;-80
2023/03/24 00:36:10;;;;;;;23.73;11.20;;;;;;;40.21;35.23;101051.41;4999249;28;20829;-80
2023/03/24 00:38:37;;;;;;;15.60;11.13;;;;;;;40.40;34.92;101042.97;4994289;28;20468;-82
2023/03/24 00:41:06;;;;;;;15.03;10.17;;;;;;;40.40;34.59;101053.84;4994210;28;20424;-82
2023/03/24 00:43:33;;;;;;;16.60;11.10;;;;;;;40.38;34.50;101047.91;4994429;28;20929;-82
2023/03/24 00:46:05;;;;;;;17.90;10.30;;;;;;;40.47;33.94;101054.19;4994621;28;20424;-82
2023/03/24 00:48:31;;;;;;;18.47;9.63;;;;;;;40.58;33.86;101048.41;4994684;28;20428;-82
2023/03/24 00:51:01;;;;;;;15.90;9.83;;;;;;;40.41;34.24;101047.28;4994386;28;20435;-82
2023/03/24 00:53:30;;;;;;;15.93;9.60;;;;;;;40.35;33.78;101031.44;4994392;28;20443;-82
2023/03/24 00:55:57;;;;;;;18.50;11.30;;;;;;;40.34;34.32;101038.00;4994138;28;20421;-82
2023/03/24 00:58:24;;;;;;;16.73;9.43;;;;;;;40.43;33.77;101034.16;4994515;28;20467;-82
2023/03/24 01:00:53;;;;;;;14.00;9.90;;;;;;;40.43;33.80;101036.06;4994163;28;20818;-81
2023/03/24 01:03:33;;;;;;;20.97;11.10;;;;;;;40.39;33.71;101044.09;4999588;28;20498;-81
2023/03/24 01:06:01;;;;;;;13.67;9.37;;;;;;;40.48;33.32;101044.91;4994291;28;20535;-82
2023/03/24 01:08:28;;;;;;;14.37;9.87;;;;;;;40.40;33.40;101047.59;4994525;28;20448;-82
2023/03/24 01:10:54;;;;;;;13.70;9.47;;;;;;;40.13;34.39;101035.88;4994260;28;20448;-82
2023/03/24 01:13:23;;;;;;;15.77;9.70;;;;;;;40.00;34.01;101051.16;5009996;28;20448;-80
2023/03/24 01:15:50;;;;;;;15.30;11.30;;;;;;;39.53;35.03;101055.44;5011825;28;20424;-80
2023/03/24 01:18:16;;;;;;;17.37;9.90;;;;;;;39.92;34.23;101032.94;4994173;28;20474;-80
2023/03/24 01:20:44;;;;;;;13.70;10.80;;;;;;;40.09;34.07;101039.56;4993954;28;20436;-80
2023/03/24 01:23:13;;;;;;;15.33;9.77;;;;;;;39.96;34.13;101036.63;4994542;28;20428;-80
2023/03/24 01:25:44;;;;;;;16.80;10.70;;;;;;;40.11;34.04;101048.19;4993937;28;20429;-80
2023/03/24 01:28:12;;;;;;;17.93;10.30;;;;;;;39.73;34.36;101027.78;4994423;28;20420;-80
2023/03/24 01:30:38;;;;;;;13.87;9.83;;;;;;;40.01;34.25;101032.94;4994281;28;20424;-80
2023/03/24 01:33:04;;;;;;;16.47;10.60;;;;;;;39.99;34.27;101016.19;5004367;28;20416;-80
2023/03/24 01:35:31;;;;;;;15.00;11.30;;;;;;;39.89;34.37;101014.53;4997408;28;20998;-80
2023/03/24 01:37:58;;;;;;;15.03;9.47;;;;;;;39.84;34.27;101020.16;4996816;28;20468;-80
2023/03/24 01:40:27;;;;;;;16.07;9.27;;;;;;;39.67;34.44;101015.47;5013768;28;20431;-80
2023/03/24 01:42:53;;;;;;;15.17;10.17;;;;;;;39.61;34.77;101016.72;5002834;28;20833;-80
2023/03/24 01:45:38;;;;;;;14.87;10.77;;;;;;;39.84;34.25;101014.72;4997041;28;20439;-80
2023/03/24 01:48:12;;;;;;;16.57;11.17;;;;;;;39.47;34.63;101014.09;5014693;28;20440;-80
2023/03/24 01:50:41;;;;;;;14.37;9.23;;;;;;;39.58;34.36;101019.22;4997380;28;20447;-79
2023/03/24 01:53:08;;;;;;;14.90;10.33;;;;;;;39.45;34.53;101002.72;5003098;28;20458;-79
2023/03/24 01:55:34;;;;;;;11.43;8.03;;;;;;;39.50;34.46;101001.78;4997173;28;20494;-80
2023/03/24 01:58:02;;;;;;;15.17;10.03;;;;;;;39.61;34.42;101007.78;4996694;28;20468;-80
2023/03/24 02:00:29;;;;;;;12.07;9.50;;;;;;;39.53;34.59;100998.44;4997276;28;20431;-80
2023/03/24 02:03:09;;;;;;;14.00;9.10;;;;;;;39.43;34.91;100994.09;4997009;28;20527;-80
2023/03/24 02:05:37;;;;;;;16.90;11.03;;;;;;;39.53;34.91;101000.34;4996920;28;20478;-80
2023/03/24 02:08:15;;;;;;;11.80;8.57;;;;;;;39.58;34.59;101003.72;4997082;28;20444;-80
2023/03/24 02:10:43;;;;;;;13.90;8.70;;;;;;;39.62;34.40;100985.72;5013033;28;20443;-80
2023/03/24 02:13:10;;;;;;;13.27;8.77;;;;;;;39.67;34.38;100987.50;4996809;28;20436;-81
2023/03/24 02:16:07;;;;;;;14.30;9.53;;;;;;;39.72;34.28;100979.22;4996605;28;20487;-80
2023/03/24 02:18:51;;;;;;;16.87;9.07;;;;;;;39.57;34.39;100976.91;4974057;28;21018;-80
2023/03/24 02:21:27;;;;;;;11.83;8.03;;;;;;;39.44;34.58;100973.19;5014545;28;20452;-80
2023/03/24 02:24:11;;;;;;;12.90;8.60;;;;;;;39.48;34.15;100971.44;5012721;28;20817;-80
2023/03/24 02:26:50;;;;;;;14.10;8.83;;;;;;;39.73;33.85;100970.75;5012780;28;20436;-80
2023/03/24 02:29:48;;;;;;;10.93;7.37;;;;;;;39.63;34.00;100960.19;4986054;28;20955;-80
2023/03/24 02:32:57;;;;;;;15.53;7.17;;;;;;;39.55;33.93;100963.66;4996527;28;20428;-80
2023/03/24 02:35:47;;;;;;;14.97;7.50;;;;;;;39.33;34.12;100950.16;4995681;28;20503;-79
2023/03/24 02:38:19;;;;;;;12.03;7.80;;;;;;;39.42;34.54;100943.66;5011065;28;20552;-80
2023/03/24 02:41:22;;;;;;;10.20;6.00;;;;;;;39.37;34.32;100932.94;5011711;28;20437;-79
2023/03/24 02:44:26;;;;;;;17.67;8.30;;;;;;;39.32;34.55;100916.00;4986890;28;20433;-80
2023/03/24 02:47:12;;;;;;;10.67;6.73;;;;;;;39.29;34.65;100912.00;4981355;28;20508;-82
2023/03/24 02:49:41;;;;;;;11.90;6.63;;;;;;;39.44;34.06;100899.91;4983719;28;20478;-82
2023/03/24 02:52:17;;;;;;;13.50;6.87;;;;;;;39.14;34.33;100893.38;5010525;28;20429;-82
2023/03/24 02:54:47;;;;;;;16.53;6.63;;;;;;;39.22;34.73;100882.59;4992847;28;20451;-82
2023/03/24 02:57:39;;;;;;;11.73;7.30;;;;;;;39.14;34.73;100867.06;4995616;28;20526;-82
2023/03/24 03:00:32;;;;;;;10.40;6.50;;;;;;;39.36;34.08;100862.69;4972880;28;20448;-82
2023/03/24 03:03:05;;;;;;;11.33;6.73;;;;;;;39.29;34.31;100852.31;4984937;28;20451;-80
2023/03/24 03:05:41;;;;;;;12.93;6.33;;;;;;;39.31;34.10;100854.69;5012839;28;20454;-81
2023/03/24 03:08:11;;;;;;;13.60;6.80;;;;;;;39.39;33.78;100840.34;4971382;28;20447;-82
2023/03/24 03:10:42;;;;;;;9.80;5.73;;;;;;;39.33;33.83;100828.03;4994068;28;20520;-82
2023/03/24 03:13:29;;;;;;;12.53;6.40;;;;;;;39.29;33.77;100821.63;5011988;28;20428;-82
2023/03/24 03:16:01;;;;;;;13.93;6.13;;;;;;;39.30;33.71;100810.47;5011610;28;20782;-82
2023/03/24 03:18:32;;;;;;;13.53;5.40;;;;;;;39.38;33.65;100819.75;4994079;28;20472;-82
2023/03/24 03:21:05;;;;;;;10.43;5.97;;;;;;;39.40;33.27;100812.06;5009761;28;20426;-82
2023/03/24 03:23:39;;;;;;;10.50;6.70;;;;;;;39.21;33.22;100806.94;4981895;28;20446;-82
2023/03/24 03:26:12;;;;;;;9.33;5.33;;;;;;;39.31;33.30;100827.56;4994517;28;20845;-81
2023/03/24 03:28:48;;;;;;;9.40;5.53;;;;;;;39.31;33.14;100831.06;5010515;28;20445;-80
2023/03/24 03:31:22;;;;;;;10.10;6.40;;;;;;;39.46;33.38;100832.50;4994260;28;20516;-80
2023/03/24 03:34:37;;;;;;;10.93;6.03;;;;;;;39.50;33.35;100837.00;4983854;28;20463;-80
2023/03/24 03:37:24;;;;;;;11.97;5.67;;;;;;;39.26;33.28;100841.28;4972179;28;20421;-81
2023/03/24 03:39:58;;;;;;;12.27;6.30;;;;;;;39.03;33.70;100830.47;4992508;28;20959;-79
2023/03/24 03:42:24;;;;;;;13.40;5.53;;;;;;;39.19;33.79;100839.03;5006824;28;21045;-80
2023/03/24 03:44:50;;;;;;;9.40;5.53;;;;;;;39.29;33.51;100846.06;4989423;28;20421;-80
2023/03/24 03:47:17;;;;;;;11.00;5.93;;;;;;;39.32;33.59;100848.94;4993713;28;20516;-80
2023/03/24 03:49:45;;;;;;;14.43;5.43;;;;;;;39.20;33.82;100841.41;4992363;28;20440;-80
2023/03/24 03:52:11;;;;;;;9.17;5.23;;;;;;;39.14;33.83;100845.34;4985371;28;20438;-80
2023/03/24 03:54:39;;;;;;;13.10;6.10;;;;;;;39.01;34.66;100859.03;4975016;28;20495;-80
2023/03/24 03:57:05;;;;;;;12.07;5.83;;;;;;;39.01;34.09;100864.47;4975401;28;20429;-79
2023/03/24 03:59:34;;;;;;;10.10;5.07;;;;;;;39.31;33.48;100855.50;4991770;28;20882;-80
2023/03/24 04:02:25;;;;;;;9.97;6.00;;;;;;;39.26;33.69;100852.91;4994793;28;20523;-81
2023/03/24 04:05:06;;;;;;;9.37;6.07;;;;;;;39.31;33.41;100855.50;4988430;28;20451;-80
2023/03/24 04:08:05;;;;;;;11.23;6.13;;;;;;;39.42;33.77;100862.22;4994392;28;20477;-79
2023/03/24 04:11:08;;;;;;;10.00;6.27;;;;;;;39.36;33.74;100865.41;4981011;28;20553;-80
2023/03/24 04:13:45;;;;;;;9.60;5.90;;;;;;;39.47;33.33;100866.69;4991261;28;20433;-80
2023/03/24 04:16:44;;;;;;;11.30;5.30;;;;;;;39.54;33.30;100869.75;4957875;28;20432;-80
2023/03/24 04:19:31;;;;;;;12.37;5.67;;;;;;;39.51;33.29;100867.66;4975535;28;21067;-80
2023/03/24 04:21:57;;;;;;;13.00;6.60;;;;;;;39.52;33.20;100882.03;4993167;28;20436;-80
2023/03/24 04:24:38;;;;;;;11.17;5.47;;;;;;;39.31;33.76;100876.41;4991774;28;20428;-80
2023/03/24 04:27:20;;;;;;;9.80;4.63;;;;;;;39.22;33.93;100879.06;4997233;28;20429;-80
2023/03/24 04:30:13;;;;;;;11.60;5.87;;;;;;;39.39;33.56;100881.03;4993417;28;20432;-80
2023/03/24 04:32:57;;;;;;;11.43;5.87;;;;;;;39.51;33.64;100883.94;4985365;28;20417;-80
2023/03/24 04:35:32;;;;;;;11.43;6.73;;;;;;;39.52;33.58;100863.81;4990102;28;20468;-80
2023/03/24 04:38:24;;;;;;;11.10;6.10;;;;;;;39.56;33.69;100856.66;4994599;28;20495;-80
2023/03/24 04:40:54;;;;;;;11.43;7.23;;;;;;;39.53;33.06;100848.34;5002664;28;20423;-80
2023/03/24 04:43:26;;;;;;;14.00;8.97;;;;;;;39.52;33.67;100849.44;4994305;28;20940;-80
2023/03/24 04:45:56;;;;;;;10.33;6.83;;;;;;;39.42;33.34;100853.28;4975502;28;20430;-80
2023/03/24 04:48:24;;;;;;;12.70;7.30;;;;;;;39.57;33.36;100860.97;4991198;28;20445;-80
2023/03/24 04:50:56;;;;;;;14.03;6.17;;;;;;;39.60;33.35;100856.81;5012129;28;20424;-80
2023/03/24 04:53:22;;;;;;;15.90;6.50;;;;;;;39.59;33.30;100866.06;4996477;28;20440;-80
2023/03/24 04:56:13;;;;;;;13.30;6.60;;;;;;;39.52;33.32;100882.81;4994220;28;20547;-80
2023/03/24 04:58:39;;;;;;;11.97;7.43;;;;;;;39.56;33.12;100881.09;5000384;28;20485;-79
2023/03/24 05:01:07;;;;;;;9.97;6.00;;;;;;;39.54;33.13;100879.81;4989340;28;20424;-80
2023/03/24 05:03:36;;;;;;;11.20;6.67;;;;;;;39.53;33.02;100881.69;4994200;28;20964;-79
2023/03/24 05:06:04;;;;;;;14.83;6.10;;;;;;;39.60;32.75;100890.22;4995201;28;20420;-80
2023/03/24 05:08:32;;;;;;;11.70;7.30;;;;;;;39.57;32.87;100896.25;4997901;28;20459;-79
2023/03/24 05:10:57;;;;;;;12.07;6.93;;;;;;;39.47;33.26;100897.38;4997952;28;20805;-80
2023/03/24 05:13:23;;;;;;;9.70;5.53;;;;;;;39.57;32.94;100901.69;4997028;28;20956;-80
2023/03/24 05:15:52;;;;;;;15.40;6.40;;;;;;;39.38;33.02;100896.53;4997146;28;20930;-79
2023/03/24 05:18:18;;;;;;;11.07;6.83;;;;;;;39.20;33.66;100901.09;4997890;28;20472;-80
2023/03/24 05:20:45;;;;;;;13.57;7.30;;;;;;;39.12;33.84;100903.78;4997626;28;20438;-80
2023/03/24 05:23:11;;;;;;;11.63;7.80;;;;;;;39.12;33.85;100896.44;4997671;28;20860;-79
2023/03/24 05:25:37;;;;;;;11.43;8.90;;;;;;;38.90;34.55;100897.28;4997502;28;20460;-79
2023/03/24 05:28:03;;;;;;;11.70;7.97;;;;;;;38.59;34.84;100893.72;4997633;28;20970;-79
2023/03/24 05:30:29;;;;;;;12.63;8.37;;;;;;;39.06;34.70;100894.97;4997221;28;20482;-80
2023/03/24 05:32:55;;;;;;;11.47;6.87;;;;;;;38.96;34.47;100887.91;4997657;28;20431;-79
2023/03/24 05:35:23;;;;;;;11.30;7.67;;;;;;;38.88;34.55;100906.84;4997061;28;20479;-82
2023/03/24 05:37:49;;;;;;;12.77;7.80;;;;;;;38.92;34.84;100905.13;4997468;28;20467;-80
2023/03/24 05:40:16;;;;;;;14.17;8.97;;;;;;;39.06;34.97;100910.44;4997706;28;20439;-83
2023/03/24 05:42:42;;;;;;;14.70;8.00;;;;;;;38.82;34.84;100906.19;4999562;28;20424;-82
2023/03/24 05:45:10;;;;;;;14.53;9.70;;;;;;;38.70;34.95;100925.69;4996794;28;20831;-80
2023/03/24 05:47:37;;;;;;;14.37;8.70;;;;;;;39.03;34.75;100936.28;5001637;28;20508;-81
2023/03/24 05:50:04;;;;;;;12.73;9.00;;;;;;;39.08;34.69;100943.47;4997006;28;20436;-80
2023/03/24 05:52:30;;;;;;;13.20;9.30;;;;;;;39.21;34.67;100940.69;4997425;28;20435;-81
2023/03/24 05:54:57;;;;;;;13.60;9.47;;;;;;;39.29;34.24;100932.88;4996872;28;20428;-79
2023/03/24 05:57:23;;;;;;;12.93;8.83;;;;;;;39.29;34.25;100933.72;5019247;28;21108;-78
2023/03/24 05:59:50;;;;;;;13.53;9.80;;;;;;;39.23;34.47;100945.81;4993769;28;20444;-80
2023/03/24 06:02:16;;;;;;;15.63;11.30;;;;;;;39.21;34.61;100948.81;4996257;28;20482;-78
2023/03/24 06:04:47;;;;;;;15.00;10.93;;;;;;;39.24;34.56;100947.41;4991678;28;20455;-80
2023/03/24 06:07:15;;;;;;;15.93;11.90;;;;;;;39.15;34.75;100950.03;4993000;28;21355;-82
2023/03/24 06:09:49;;;;;;;19.57;13.53;;;;;;;39.07;34.76;100947.31;4996334;28;20428;-79
2023/03/24 06:12:15;;;;;;;21.40;12.87;;;;;;;38.95;35.29;100958.72;4991611;28;20428;-81
2023/03/24 06:14:41;;;;;;;19.23;14.00;;;;;;;39.14;35.02;100956.59;5005760;28;20429;-79
2023/03/24 06:17:13;;;;;;;22.07;14.10;;;;;;;39.31;34.78;100974.91;4995854;28;20436;-81
2023/03/24 06:19:48;;;;;;;16.43;12.80;;;;;;;39.27;34.52;100973.91;5011966;28;20526;-81
2023/03/24 06:22:18;;;;;;;22.60;14.80;;;;;;;39.34;34.58;100957.19;4995383;28;20856;-81
2023/03/24 06:24:52;;;;;;;16.17;11.57;;;;;;;39.38;34.49;100974.44;4994825;28;20571;-81
2023/03/24 06:27:20;;;;;;;16.20;11.93;;;;;;;39.40;34.43;100972.19;5012266;28;20420;-81
2023/03/24 06:29:46;;;;;;;21.60;17.60;;;;;;;39.41;34.67;100963.78;4995091;28;20758;-83
2023/03/24 06:32:12;;;;;;;26.47;17.57;;;;;;;39.44;34.42;100974.00;4994763;28;20432;-83
2023/03/24 06:34:39;;;;;;;25.30;19.67;;;;;;;39.57;34.30;100977.69;4988792;28;20480;-81
2023/03/24 06:37:05;;;;;;;29.67;22.10;;;;;;;39.61;34.26;100996.91;5005521;28;20456;-82
2023/03/24 06:40:11;;;;;;;33.90;23.87;;;;;;;39.65;34.29;101004.09;5001657;28;20495;-88
2023/03/24 06:42:48;;;;;;;29.73;20.50;;;;;;;39.47;34.11;100969.84;5012609;28;20410;-82
2023/03/24 06:45:19;;;;;;;26.90;20.13;;;;;;;39.49;34.15;100992.06;4981991;28;20451;-85
2023/03/24 06:48:08;;;;;;;32.60;22.03;;;;;;;39.66;34.01;101007.63;4976774;28;20453;-79
2023/03/24 06:50:44;;;;;;;32.10;21.37;;;;;;;39.73;33.61;101013.41;4995041;28;20440;-83
2023/03/24 06:53:11;;;;;;;29.93;17.23;;;;;;;39.68;33.41;101008.13;4987705;28;20959;-86
2023/03/24 06:55:42;;;;;;;26.87;16.50;;;;;;;39.79;33.76;101023.00;4982668;28;20472;-82
2023/03/24 06:58:16;;;;;;;19.20;13.60;;;;;;;39.21;33.75;100989.53;4998107;28;20464;-92
2023/03/24 07:00:54;;;;;;;17.00;10.60;;;;;;;39.09;34.35;101005.56;4995104;28;20425;-91
2023/03/24 07:03:47;;;;;;;14.13;8.33;;;;;;;39.21;33.70;101032.94;4969850;28;20493;-79
2023/03/24 07:06:22;;;;;;;14.60;8.27;;;;;;;39.12;33.97;101006.84;4988982;28;20803;-85
2023/03/24 07:08:55;;;;;;;15.03;8.83;;;;;;;39.36;33.66;101048.03;4961848;28;20458;-85
2023/03/24 07:11:22;;;;;;;12.07;7.73;;;;;;;39.34;33.86;101014.16;4992188;28;20894;-87
2023/03/24 07:13:56;;;;;;;13.00;7.70;;;;;;;39.49;33.35;101044.44;4980016;28;20500;-84
2023/03/24 07:16:26;;;;;;;14.70;9.73;;;;;;;39.55;33.85;101017.94;4994685;28;20421;-85
2023/03/24 07:18:53;;;;;;;12.40;8.07;;;;;;;39.65;33.59;101035.88;4962858;28;20469;-86
2023/03/24 07:21:22;;;;;;;16.90;9.40;;;;;;;39.69;33.38;101048.53;4981234;28;20433;-84
2023/03/24 07:23:56;;;;;;;12.27;7.93;;;;;;;39.61;33.43;101043.88;4990095;28;20432;-85
2023/03/24 07:26:22;;;;;;;11.30;7.53;;;;;;;39.65;32.97;101033.16;4953049;28;21021;-88
2023/03/24 07:28:50;;;;;;;16.90;6.97;;;;;;;39.52;32.75;101015.03;4971071;28;20515;-86
2023/03/24 07:31:23;;;;;;;11.47;6.97;;;;;;;39.52;32.90;101023.97;4975985;28;20453;-82
2023/03/24 07:33:49;;;;;;;16.33;9.43;;;;;;;39.69;32.66;101007.78;4982214;28;20442;-83
2023/03/24 07:36:18;;;;;;;15.00;9.70;;;;;;;39.82;32.69;101041.38;4985960;28;20468;-86
2023/03/24 07:38:44;;;;;;;13.63;9.67;;;;;;;39.89;33.08;101039.00;4981612;28;20480;-86
2023/03/24 07:41:10;;;;;;;18.40;8.73;;;;;;;40.00;32.41;101034.88;4994891;28;20429;-85
2023/03/24 07:43:38;;;;;;;15.67;10.83;;;;;;;39.92;32.22;101024.78;5002849;28;20435;-87
2023/03/24 07:46:06;;;;;;;14.10;9.47;;;;;;;39.87;32.28;101014.06;4986957;28;20469;-84
2023/03/24 07:48:36;;;;;;;15.83;9.10;;;;;;;39.99;32.20;101032.47;5006323;28;20421;-85
2023/03/24 07:51:15;;;;;;;14.07;9.37;;;;;;;39.79;32.40;101014.88;5006002;28;20435;-87
2023/03/24 07:53:44;;;;;;;15.47;10.20;;;;;;;39.97;32.89;101021.13;4970130;28;20456;-84
2023/03/24 07:56:12;;;;;;;14.90;9.93;;;;;;;40.13;31.97;101025.00;4990352;28;20441;-86
2023/03/24 07:58:50;;;;;;;14.60;10.20;;;;;;;39.86;32.13;101008.97;5007012;28;20459;-84
2023/03/24 08:01:18;;;;;;;13.60;9.23;;;;;;;40.09;31.99;101039.56;4992454;28;20420;-85
2023/03/24 08:03:47;;;;;;;22.77;7.23;;;;;;;40.10;32.00;101041.16;5001542;28;20432;-85
2023/03/24 08:06:15;;;;;;;15.63;8.03;;;;;;;40.12;31.74;101028.84;5012312;28;20423;-88
2023/03/24 08:08:44;;;;;;;11.90;7.50;;;;;;;40.05;31.59;101008.72;5014452;28;20523;-87
2023/03/24 08:11:22;;;;;;;16.20;7.70;;;;;;;40.17;31.66;101017.84;5014456;28;20475;-86
2023/03/24 08:13:48;;;;;;;13.40;10.13;;;;;;;40.12;31.78;101004.41;4976432;28;20504;-85
2023/03/24 08:16:17;;;;;;;17.80;8.77;;;;;;;40.17;31.85;101001.53;5014402;28;20420;-85
2023/03/24 08:18:45;;;;;;;17.10;9.80;;;;;;;40.44;31.87;101035.75;5008486;28;20472;-83
2023/03/24 08:21:12;;;;;;;17.07;10.93;;;;;;;40.46;31.69;101025.38;4980972;28;20436;-85
2023/03/24 08:23:40;;;;;;;17.80;8.67;;;;;;;40.30;32.06;100999.78;4978192;28;20433;-81
2023/03/24 08:26:14;;;;;;;16.07;8.93;;;;;;;40.45;31.91;101017.50;4994923;28;20436;-87
2023/03/24 08:28:40;;;;;;;22.13;9.77;;;;;;;40.57;32.21;101034.00;5017562;28;20944;-88
2023/03/24 08:31:06;;;;;;;16.70;10.40;;;;;;;40.55;32.32;101039.78;4993508;28;20421;-89
2023/03/24 08:33:34;;;;;;;18.10;10.17;;;;;;;40.54;32.62;101042.81;4996936;28;20929;-85
2023/03/24 08:36:07;;;;;;;13.70;10.17;;;;;;;40.57;32.02;101042.16;4991097;28;20579;-85
2023/03/24 08:38:37;;;;;;;18.63;11.13;;;;;;;40.59;32.68;101050.81;4991938;28;20550;-85
2023/03/24 08:41:07;;;;;;;15.83;10.13;;;;;;;40.44;32.49;101022.16;4997928;28;20429;-81
2023/03/24 08:43:36;;;;;;;14.20;8.27;;;;;;;40.47;32.55;101010.69;5011321;28;20503;-87
2023/03/24 08:46:02;;;;;;;15.13;8.20;;;;;;;40.64;32.47;101047.13;4971751;28;20438;-88
2023/03/24 08:48:29;;;;;;;17.63;9.53;;;;;;;40.55;32.63;101031.63;4991160;28;20420;-87
2023/03/24 08:50:55;;;;;;;21.90;10.43;;;;;;;40.57;32.68;101030.50;5008768;28;20543;-85
2023/03/24 08:53:21;;;;;;;18.30;9.87;;;;;;;40.67;33.39;101041.84;4997972;28;20523;-87
2023/03/24 08:55:48;;;;;;;20.90;8.90;;;;;;;40.59;33.38;101036.44;4998341;28;20447;-87
2023/03/24 08:58:19;;;;;;;15.30;7.30;;;;;;;40.62;34.00;101036.56;5013133;28;20475;-88
2023/03/24 09:00:48;;;;;;;17.90;8.37;;;;;;;40.57;34.08;101028.56;4998941;28;20953;-90
2023/03/24 09:03:20;;;;;;;13.13;7.13;;;;;;;40.51;33.48;101029.84;5014947;28;20432;-89
2023/03/24 09:05:47;;;;;;;10.50;7.00;;;;;;;40.44;32.70;101027.59;5000631;28;20483;-90
2023/03/24 09:08:15;;;;;;;11.80;5.93;;;;;;;40.65;32.92;101038.66;5015494;28;20531;-89
2023/03/24 09:10:45;;;;;;;12.60;5.87;;;;;;;40.76;33.16;101036.41;4998982;28;20421;-88
2023/03/24 09:13:23;;;;;;;11.70;4.90;;;;;;;40.77;32.92;101038.81;4986620;28;20440;-79
2023/03/24 09:15:52;;;;;;;11.03;5.70;;;;;;;40.68;32.93;101040.72;5021918;28;20451;-79
2023/03/24 09:18:22;;;;;;;11.07;6.10;;;;;;;40.75;32.12;101037.53;5002817;28;20526;-85
2023/03/24 09:20:49;;;;;;;9.33;4.87;;;;;;;40.63;32.15;101007.47;4981914;28;20487;-84
2023/03/24 09:23:15;;;;;;;11.67;5.20;;;;;;;40.88;32.08;101033.81;5015064;28;20478;-85
2023/03/24 09:25:41;;;;;;;10.37;4.83;;;;;;;41.01;31.82;101040.25;4997632;28;20424;-89
2023/03/24 09:28:14;;;;;;;12.43;5.03;;;;;;;40.84;32.29;101026.66;5008489;28;20801;-90
2023/03/24 09:30:42;;;;;;;10.70;3.63;;;;;;;40.77;32.22;101008.09;4986253;28;20420;-89
2023/03/24 09:33:11;;;;;;;10.63;3.70;;;;;;;40.80;32.27;101010.16;4992741;28;20462;-86
2023/03/24 09:35:45;;;;;;;8.70;4.63;;;;;;;41.06;32.25;101026.44;4996587;28;20484;-89
2023/03/24 09:38:18;;;;;;;8.13;4.10;;;;;;;40.87;32.73;101010.47;4994471;28;20474;-87
2023/03/24 09:40:48;;;;;;;10.87;3.83;;;;;;;40.69;32.71;100998.81;4987581;28;20430;-82
2023/03/24 09:43:38;;;;;;;9.63;4.00;;;;;;;40.96;32.26;101051.31;4998544;28;20428;-84
2023/03/24 09:46:23;;;;;;;11.20;4.93;;;;;;;41.02;32.54;101041.84;4973244;28;20472;-88
2023/03/24 09:48:59;;;;;;;12.47;4.10;;;;;;;41.02;32.52;101042.66;4986256;28;20448;-91
2023/03/24 09:51:43;;;;;;;13.43;4.10;;;;;;;41.06;32.42;101043.56;4978011;28;20429;-89
2023/03/24 09:54:30;;;;;;;8.80;4.03;;;;;;;41.02;32.46;101025.53;5002921;28;20464;-91
2023/03/24 09:56:57;;;;;;;11.93;6.47;;;;;;;41.21;32.67;101050.44;4968896;28;20436;-91
2023/03/24 09:59:44;;;;;;;9.30;4.20;;;;;;;40.97;32.11;101026.50;4999108;28;20519;-91
2023/03/24 10:02:20;;;;;;;10.83;4.17;;;;;;;41.07;32.11;101014.47;4985351;28;20422;-91
2023/03/24 10:04:59;;;;;;;10.20;5.00;;;;;;;41.28;31.55;101058.09;5013005;28;20952;-91
2023/03/24 10:08:10;;;;;;;12.80;4.10;;;;;;;41.30;31.66;101058.56;4985380;28;20829;-89
2023/03/24 10:11:11;;;;;;;10.57;4.90;;;;;;;41.15;31.43;101027.25;4983326;28;20507;-88
2023/03/24 10:14:07;;;;;;;9.10;4.60;;;;;;;41.24;31.29;101052.50;5002480;28;20475;-90
2023/03/24 10:17:09;;;;;;;10.90;3.77;;;;;;;41.29;31.49;101046.88;4973431;28;20573;-90
2023/03/24 10:20:06;;;;;;;11.47;4.30;;;;;;;41.27;31.61;101043.69;4999969;28;20460;-90
2023/03/24 10:23:06;;;;;;;9.87;4.90;;;;;;;41.19;31.87;101036.38;5011029;28;20425;-87
2023/03/24 10:25:47;;;;;;;13.23;7.27;;;;;;;41.20;32.00;101037.16;5007247;28;20455;-89
2023/03/24 10:28:32;;;;;;;11.40;5.73;;;;;;;41.37;31.51;101047.22;5009205;28;20941;-88
2023/03/24 10:31:06;;;;;;;13.47;5.63;;;;;;;41.25;31.15;101024.19;4984734;28;20457;-88
2023/03/24 10:33:41;;;;;;;8.70;3.30;;;;;;;41.18;30.87;101018.41;4998841;28;20440;-89
2023/03/24 10:36:23;;;;;;;11.33;6.13;;;;;;;41.18;31.02;101012.19;4996119;28;20499;-89
2023/03/24 10:38:59;;;;;;;9.60;3.70;;;;;;;41.20;31.05;101008.03;5008346;28;21031;-90
2023/03/24 10:41:38;;;;;;;13.87;5.00;;;;;;;41.37;31.17;101028.94;5021785;28;20924;-91
2023/03/24 10:44:16;;;;;;;12.23;5.10;;;;;;;41.11;31.53;100979.22;5011627;28;20445;-90
2023/03/24 10:46:57;;;;;;;11.53;5.43;;;;;;;41.23;31.35;100991.03;5018201;28;20405;-92
2023/03/24 10:49:25;;;;;;;11.13;4.97;;;;;;;41.31;31.32;101006.53;5002253;28;20467;-92
2023/03/24 10:52:00;;;;;;;11.17;5.20;;;;;;;41.36;31.19;101012.94;4987995;28;20444;-88
2023/03/24 10:54:30;;;;;;;13.03;5.27;;;;;;;41.25;30.99;100991.50;4994076;28;20458;-88
2023/03/24 10:57:15;;;;;;;11.33;5.77;;;;;;;41.42;31.15;101008.91;5015089;28;20515;-87
2023/03/24 10:59:59;;;;;;;9.90;4.50;;;;;;;41.26;31.30;100990.38;5026495;28;20458;-88
2023/03/24 11:02:36;;;;;;;7.97;3.53;;;;;;;41.30;31.33;101004.13;5002370;28;20490;-88
2023/03/24 11:05:21;;;;;;;10.93;4.80;;;;;;;41.02;31.53;100992.88;5013043;28;20432;-88
2023/03/24 11:07:52;;;;;;;14.67;4.53;;;;;;;41.14;31.20;100984.81;4999429;28;20467;-90
2023/03/24 11:10:24;;;;;;;11.70;5.23;;;;;;;41.26;31.56;101009.44;4996753;28;20432;-89
2023/03/24 11:12:53;;;;;;;12.77;4.77;;;;;;;41.27;31.20;101010.25;4995984;28;20819;-90
2023/03/24 11:15:21;;;;;;;14.13;5.80;;;;;;;41.31;31.38;101000.28;5014678;28;20952;-91
2023/03/24 11:17:55;;;;;;;10.47;4.93;;;;;;;41.29;31.39;100988.91;5000774;28;20468;-91
2023/03/24 11:20:36;;;;;;;8.60;4.17;;;;;;;41.33;31.91;100996.16;4996581;28;20433;-92
2023/03/24 11:23:20;;;;;;;9.43;5.30;;;;;;;41.37;31.30;100996.28;4998762;28;20432;-90
2023/03/24 11:26:07;;;;;;;9.90;4.40;;;;;;;41.46;31.21;100979.91;5013469;28;20435;-90
2023/03/24 11:28:40;;;;;;;10.30;4.30;;;;;;;41.43;31.67;100989.53;4996244;28;20955;-89
2023/03/24 11:31:10;;;;;;;11.90;4.70;;;;;;;41.47;32.16;100981.50;4991624;28;20510;-91
2023/03/24 11:33:55;;;;;;;9.10;5.33;;;;;;;41.57;32.36;100986.59;4995581;28;20511;-89
2023/03/24 11:36:33;;;;;;;10.57;3.97;;;;;;;41.51;31.87;100975.09;4980921;28;20550;-90
2023/03/24 11:39:22;;;;;;;9.80;4.10;;;;;;;41.60;31.79;100964.13;5000982;28;20480;-88
2023/03/24 11:42:17;;;;;;;9.37;4.50;;;;;;;41.60;32.25;100964.94;5003338;28;20539;-91
2023/03/24 11:44:57;;;;;;;15.57;4.50;;;;;;;41.64;31.93;100958.84;4991786;28;20843;-90
2023/03/24 11:47:37;;;;;;;11.90;4.60;;;;;;;41.34;31.91;100926.16;4994917;28;20429;-91